Casa Blanca, New Mexico
Current Conditions -  °F | °C
As of 1:56 PM on Friday 31 Oct 2014 (Local Time) from KGNT Reporting Station
Clear Clear  
Wind Chill: 63°   Ceiling: Unl
Heat Index: 63°   Visibility: 10mi
Dew Point: 27°   Wind: 22mph
Humidity: 26%   Direction: 130°SE
Pressure: 30.28"   Gusts: 29mph
Location:  35.04°N, 107.47°W
Report Text: KGNT 311956Z AUTO 13019G25KT 10SM CLR 17/M03 A3028 RMK AO2
Loading
Personal Weather Stations






























Interactive Weather Map
Tropical Storm Tracking
New forecast layout! Learn more

10-Day Weather Forecast

Advertisements
Track Severe Weather on mobile